Time;durP1;ratioP1;P1;durP2;ratioP2;P2;SDS_P1;SDS_P2;PMS_P1;PMS_P2;Temp;Humidity;BMP_temperature;BMP_pressure;BME280_temperature;BME280_humidity;BME280_pressure;Samples;Min_cycle;Max_cycle;Signal;HPM_P1;HPM_P2
2021/12/05 01:02:13;;;;;;;17.40;9.13;;;;;;;;;;6154427;23;20524;-87
2021/12/05 01:12:40;;;;;;;19.60;9.17;;;;;;;;;;6054675;23;20300;-88
2021/12/05 01:15:50;;;;;;;17.60;8.67;;;;;;;;;;6039343;23;20247;-89
2021/12/05 01:18:55;;;;;;;17.37;8.43;;;;;;;;;;6153645;23;20185;-88
2021/12/05 01:22:03;;;;;;;17.23;8.80;;;;;;;;;;6153383;23;20249;-89
2021/12/05 01:25:19;;;;;;;16.70;8.40;;;;;;;;;;6171698;23;20627;-88
2021/12/05 01:28:37;;;;;;;22.00;10.50;;;;;;;;;;6154682;23;20208;-88
2021/12/05 01:31:56;;;;;;;21.27;10.50;;;;;;;;;;6154088;23;20197;-88
2021/12/05 01:35:12;;;;;;;21.70;9.67;;;;;;;;;;6150140;23;20177;-87
2021/12/05 01:38:27;;;;;;;21.87;10.57;;;;;;;;;;6153990;23;20196;-87
2021/12/05 01:45:22;;;;;;;26.23;10.37;;;;;;;;;;6152466;23;20596;-88
2021/12/05 01:55:41;;;;;;;18.70;8.67;;;;;;;;;;6153630;23;20168;-87
2021/12/05 01:59:02;;;;;;;18.13;8.60;;;;;;;;;;6153542;23;20625;-87
2021/12/05 02:02:44;;;;;;;19.27;8.33;;;;;;;;;;6152282;23;20648;-86
2021/12/05 02:33:18;;;;;;;9.43;5.17;;;;;;;;;;6153040;23;20169;-88
2021/12/05 02:40:06;;;;;;;9.67;5.03;;;;;;;;;;6138680;23;20308;-89
2021/12/05 02:43:14;;;;;;;9.10;4.80;;;;;;;;;;6154997;23;20181;-87
2021/12/05 02:46:22;;;;;;;6.70;4.17;;;;;;;;;;6155362;23;20164;-88
2021/12/05 02:49:30;;;;;;;4.90;3.07;;;;;;;;;;6155648;23;20213;-89
2021/12/05 02:52:39;;;;;;;5.57;3.10;;;;;;;;;;6153720;23;20172;-89
2021/12/05 02:55:45;;;;;;;3.37;2.30;;;;;;;;;;6149396;23;20192;-89
2021/12/05 02:58:55;;;;;;;4.57;2.60;;;;;;;;;;6125790;23;20193;-89
2021/12/05 03:02:04;;;;;;;2.40;1.80;;;;;;;;;;6122992;23;20197;-88
2021/12/05 03:05:13;;;;;;;3.73;1.90;;;;;;;;;;6124432;23;20191;-88
2021/12/05 03:08:23;;;;;;;3.47;2.00;;;;;;;;;;6125789;23;20169;-86
2021/12/05 03:11:31;;;;;;;2.10;1.53;;;;;;;;;;6125517;23;20165;-88
2021/12/05 03:14:36;;;;;;;2.00;1.40;;;;;;;;;;6125025;23;20157;-88
2021/12/05 03:17:43;;;;;;;3.13;2.00;;;;;;;;;;6127395;23;20197;-88
2021/12/05 03:20:52;;;;;;;5.13;2.10;;;;;;;;;;6124398;23;20177;-87
2021/12/05 03:23:58;;;;;;;4.60;2.00;;;;;;;;;;6126269;23;20223;-89
2021/12/05 03:27:07;;;;;;;4.30;2.33;;;;;;;;;;6125637;23;20237;-87
2021/12/05 03:30:18;;;;;;;4.57;2.40;;;;;;;;;;6123941;23;20213;-88
2021/12/05 03:33:25;;;;;;;4.93;2.50;;;;;;;;;;6126478;23;20174;-86
2021/12/05 03:36:32;;;;;;;8.80;2.60;;;;;;;;;;6126585;23;20266;-88
2021/12/05 03:39:37;;;;;;;5.23;2.57;;;;;;;;;;6126803;23;20517;-88
2021/12/05 03:42:46;;;;;;;4.17;2.60;;;;;;;;;;6126769;23;20174;-88
2021/12/05 03:45:54;;;;;;;6.17;2.70;;;;;;;;;;6127200;23;20242;-89
2021/12/05 03:49:01;;;;;;;3.67;2.70;;;;;;;;;;6126468;23;20157;-90
2021/12/05 03:52:10;;;;;;;4.23;2.50;;;;;;;;;;6125538;23;20226;-88
2021/12/05 03:55:16;;;;;;;3.23;2.67;;;;;;;;;;6126772;23;20181;-90
2021/12/05 03:58:23;;;;;;;4.60;2.60;;;;;;;;;;6126238;23;20219;-89
2021/12/05 04:01:29;;;;;;;5.83;3.00;;;;;;;;;;6126596;23;20636;-90
2021/12/05 04:04:35;;;;;;;5.43;3.03;;;;;;;;;;6125914;23;20169;-89
2021/12/05 04:07:47;;;;;;;7.37;3.23;;;;;;;;;;6125777;23;20269;-88
2021/12/05 04:10:55;;;;;;;9.13;2.87;;;;;;;;;;6123451;23;20213;-87
2021/12/05 04:14:02;;;;;;;4.03;2.87;;;;;;;;;;6126457;23;20156;-90
2021/12/05 04:17:09;;;;;;;5.27;3.10;;;;;;;;;;6124012;23;20169;-88
2021/12/05 04:20:16;;;;;;;4.63;2.70;;;;;;;;;;6124103;23;20193;-90
2021/12/05 04:23:21;;;;;;;6.43;2.57;;;;;;;;;;6124634;23;20192;-89
2021/12/05 04:26:27;;;;;;;3.57;2.07;;;;;;;;;;6124030;23;20217;-89
2021/12/05 04:29:36;;;;;;;6.23;2.70;;;;;;;;;;6125029;23;20185;-88
2021/12/05 04:32:41;;;;;;;6.83;2.73;;;;;;;;;;6123571;23;20505;-89
2021/12/05 04:35:47;;;;;;;7.13;2.77;;;;;;;;;;6124887;23;20161;-88
2021/12/05 04:38:52;;;;;;;5.40;2.50;;;;;;;;;;6122495;23;20189;-89
2021/12/05 04:41:57;;;;;;;8.23;2.70;;;;;;;;;;6122815;23;20664;-90
2021/12/05 04:45:06;;;;;;;8.73;2.90;;;;;;;;;;6121560;23;20230;-88
2021/12/05 04:48:12;;;;;;;10.50;3.30;;;;;;;;;;6120715;23;20172;-88
2021/12/05 04:51:18;;;;;;;5.60;2.90;;;;;;;;;;6121190;23;20222;-89
2021/12/05 04:54:23;;;;;;;11.50;4.07;;;;;;;;;;6120914;23;20169;-90
2021/12/05 04:57:29;;;;;;;9.67;2.97;;;;;;;;;;6160933;23;20224;-89
2021/12/05 05:01:13;;;;;;;5.87;2.50;;;;;;;;;;6166727;23;20168;-88
2021/12/05 05:04:25;;;;;;;7.03;2.77;;;;;;;;;;6168882;23;20157;-88
2021/12/05 05:07:37;;;;;;;5.53;2.37;;;;;;;;;;6168158;23;20236;-88
2021/12/05 05:10:43;;;;;;;7.07;2.30;;;;;;;;;;6168030;23;20169;-89
2021/12/05 05:13:48;;;;;;;7.40;2.20;;;;;;;;;;6166773;23;20552;-90
2021/12/05 05:16:55;;;;;;;4.93;2.37;;;;;;;;;;6166735;23;20176;-88
2021/12/05 05:20:08;;;;;;;7.73;2.33;;;;;;;;;;6167241;23;20172;-89
2021/12/05 05:23:29;;;;;;;6.07;2.20;;;;;;;;;;6168139;23;20312;-90
2021/12/05 05:30:17;;;;;;;11.13;1.90;;;;;;;;;;6166021;23;20208;-90
2021/12/05 05:40:22;;;;;;;10.60;2.43;;;;;;;;;;6167918;23;20173;-89
2021/12/05 05:43:36;;;;;;;3.97;1.77;;;;;;;;;;6166619;23;20273;-90
2021/12/05 05:46:55;;;;;;;3.57;1.97;;;;;;;;;;6168054;23;20173;-88
2021/12/05 05:50:01;;;;;;;8.23;1.73;;;;;;;;;;6167100;23;20172;-89
2021/12/05 05:53:09;;;;;;;6.30;2.20;;;;;;;;;;6168403;23;20175;-89
2021/12/05 05:56:18;;;;;;;2.70;1.60;;;;;;;;;;6155484;23;20644;-89
2021/12/05 05:59:27;;;;;;;13.43;1.60;;;;;;;;;;6122152;23;20183;-88
2021/12/05 06:05:56;;;;;;;5.53;1.77;;;;;;;;;;6121472;23;20165;-89
2021/12/05 06:09:03;;;;;;;6.83;2.07;;;;;;;;;;6120496;23;20189;-89
2021/12/05 06:12:12;;;;;;;6.57;2.13;;;;;;;;;;6120503;23;20157;-90
2021/12/05 06:15:19;;;;;;;5.20;2.40;;;;;;;;;;6120493;23;20170;-88
2021/12/05 06:18:25;;;;;;;7.73;2.50;;;;;;;;;;6123719;23;20173;-89
2021/12/05 06:21:30;;;;;;;6.43;2.10;;;;;;;;;;6122837;23;20210;-88
2021/12/05 06:24:36;;;;;;;3.43;1.87;;;;;;;;;;6123187;23;20213;-88
2021/12/05 06:27:43;;;;;;;6.40;2.30;;;;;;;;;;6124929;23;20180;-90
2021/12/05 06:30:53;;;;;;;6.77;2.37;;;;;;;;;;6124302;23;20172;-90
2021/12/05 06:37:43;;;;;;;7.57;1.87;;;;;;;;;;6122865;23;20161;-89
2021/12/05 06:40:59;;;;;;;10.57;2.70;;;;;;;;;;6124494;23;20214;-90
2021/12/05 06:47:28;;;;;;;6.00;2.07;;;;;;;;;;6124322;23;20657;-89
2021/12/05 06:50:33;;;;;;;10.33;2.33;;;;;;;;;;6123703;23;20173;-89
2021/12/05 06:53:39;;;;;;;6.13;2.27;;;;;;;;;;6124232;23;20173;-88
2021/12/05 06:56:46;;;;;;;6.07;2.37;;;;;;;;;;6146092;23;20196;-89
2021/12/05 06:59:51;;;;;;;9.87;3.00;;;;;;;;;;6170772;23;20201;-88
2021/12/05 07:02:57;;;;;;;9.33;3.40;;;;;;;;;;6170456;23;20201;-88
2021/12/05 07:06:05;;;;;;;7.03;2.70;;;;;;;;;;6171730;23;20234;-90
2021/12/05 07:09:11;;;;;;;7.83;3.47;;;;;;;;;;6171211;23;20185;-88
2021/12/05 07:13:07;;;;;;;11.80;3.50;;;;;;;;;;6172431;23;20168;-90
2021/12/05 07:19:43;;;;;;;9.73;3.57;;;;;;;;;;6171682;23;20213;-88
2021/12/05 07:23:03;;;;;;;11.87;3.20;;;;;;;;;;6172394;23;20196;-90
2021/12/05 07:26:12;;;;;;;7.63;2.77;;;;;;;;;;6173025;23;20284;-90
2021/12/05 07:42:52;;;;;;;6.23;2.77;;;;;;;;;;6171986;23;20196;-89
2021/12/05 07:46:05;;;;;;;10.23;3.70;;;;;;;;;;6172192;23;20496;-89
2021/12/05 07:49:11;;;;;;;10.77;3.67;;;;;;;;;;6170720;23;20200;-89
2021/12/05 07:52:21;;;;;;;11.20;3.53;;;;;;;;;;6170623;23;20197;-88
2021/12/05 07:55:32;;;;;;;9.97;3.60;;;;;;;;;;6169023;23;20157;-88
2021/12/05 07:58:56;;;;;;;8.67;3.87;;;;;;;;;;6124124;23;20181;-90
2021/12/05 08:16:00;;;;;;;15.37;5.43;;;;;;;;;;6124538;23;20173;-87
2021/12/05 08:19:07;;;;;;;16.47;5.37;;;;;;;;;;6125569;23;20180;-90
2021/12/05 08:22:12;;;;;;;8.97;4.63;;;;;;;;;;6125905;23;20173;-88
2021/12/05 08:25:21;;;;;;;9.63;4.10;;;;;;;;;;6125166;23;20169;-89
2021/12/05 08:28:42;;;;;;;11.07;3.93;;;;;;;;;;6124457;23;20169;-88
2021/12/05 08:32:10;;;;;;;12.13;4.70;;;;;;;;;;6124801;23;20165;-88
2021/12/05 08:35:37;;;;;;;18.50;8.47;;;;;;;;;;6124077;23;20168;-88
2021/12/05 08:39:19;;;;;;;17.97;8.00;;;;;;;;;;6124507;23;20177;-89
2021/12/05 08:42:52;;;;;;;18.50;6.20;;;;;;;;;;6125270;23;20193;-90
2021/12/05 09:23:52;;;;;;;9.00;3.50;;;;;;;;;;6122529;23;20208;-88
2021/12/05 09:30:51;;;;;;;22.43;9.37;;;;;;;;;;6081506;23;20209;-89
2021/12/05 09:51:19;;;;;;;18.53;8.00;;;;;;;;;;6124152;23;20169;-90
2021/12/05 10:01:56;;;;;;;15.23;4.53;;;;;;;;;;6127678;23;20206;-88
2021/12/05 10:08:38;;;;;;;12.57;5.20;;;;;;;;;;6128199;23;20177;-91
2021/12/05 10:11:52;;;;;;;11.30;5.53;;;;;;;;;;6125619;23;20172;-90
2021/12/05 10:15:15;;;;;;;9.47;5.20;;;;;;;;;;6126199;23;20194;-88
